Time;durP1;ratioP1;P1;durP2;ratioP2;P2;SDS_P1;SDS_P2;PMS_P1;PMS_P2;Temp;Humidity;BMP_temperature;BMP_pressure;BME280_temperature;BME280_humidity;BME280_pressure;Samples;Min_cycle;Max_cycle;Signal;HPM_P1;HPM_P2
2023/02/07 00:00:16;;;;;;;16.15;8.60;;;3.90;99.90;;;;;;5000437;28;20030;-42
2023/02/07 00:02:43;;;;;;;19.55;9.88;;;3.80;99.90;;;;;;5001486;28;20034;-43
2023/02/07 00:05:09;;;;;;;19.13;9.25;;;3.80;99.90;;;;;;5000503;28;20046;-43
2023/02/07 00:07:35;;;;;;;20.42;9.15;;;3.80;99.90;;;;;;5001901;28;20109;-44
2023/02/07 00:10:01;;;;;;;18.10;8.98;;;3.80;99.90;;;;;;5000940;28;20511;-42
2023/02/07 00:12:27;;;;;;;19.35;8.82;;;3.70;99.90;;;;;;5001192;28;20022;-44
2023/02/07 00:14:52;;;;;;;16.80;8.75;;;3.70;99.90;;;;;;5001093;28;20404;-44
2023/02/07 00:17:18;;;;;;;18.98;9.70;;;3.70;99.90;;;;;;5001564;28;20025;-43
2023/02/07 00:19:43;;;;;;;20.25;9.55;;;3.70;99.90;;;;;;5001088;28;20029;-43
2023/02/07 00:22:09;;;;;;;24.33;12.52;;;3.70;99.90;;;;;;5001551;28;20018;-43
2023/02/07 00:24:34;;;;;;;23.58;12.18;;;3.60;99.90;;;;;;5001214;28;20385;-43
2023/02/07 00:27:00;;;;;;;28.10;12.02;;;3.60;99.90;;;;;;5000485;28;20408;-43
2023/02/07 00:29:26;;;;;;;20.73;11.02;;;3.60;99.90;;;;;;5001114;28;20140;-43
2023/02/07 00:31:51;;;;;;;21.17;10.60;;;3.60;99.90;;;;;;5000432;28;20489;-43
2023/02/07 00:34:17;;;;;;;19.52;10.32;;;3.50;99.90;;;;;;5000854;28;20046;-43
2023/02/07 00:36:43;;;;;;;24.85;11.00;;;3.50;99.90;;;;;;5000417;28;20057;-43
2023/02/07 00:39:13;;;;;;;20.00;11.35;;;3.50;99.90;;;;;;5001390;28;20037;-43
2023/02/07 00:41:39;;;;;;;19.63;9.82;;;3.50;99.90;;;;;;5001085;28;20017;-44
2023/02/07 00:44:07;;;;;;;20.38;10.43;;;3.40;99.90;;;;;;5000988;28;20129;-43
2023/02/07 00:46:34;;;;;;;21.73;9.93;;;3.40;99.90;;;;;;5000690;28;20053;-44
2023/02/07 00:49:00;;;;;;;24.02;11.88;;;3.40;99.90;;;;;;5000825;28;20026;-44
2023/02/07 00:51:26;;;;;;;18.92;9.93;;;3.30;99.90;;;;;;5001512;28;20126;-44
2023/02/07 00:53:55;;;;;;;19.10;10.23;;;3.30;99.90;;;;;;5000328;28;20748;-43
2023/02/07 00:56:23;;;;;;;21.95;10.60;;;3.30;99.90;;;;;;5000124;28;20033;-44
2023/02/07 00:58:49;;;;;;;17.67;10.55;;;3.30;99.90;;;;;;5000415;28;20125;-43
2023/02/07 01:01:15;;;;;;;22.20;10.57;;;3.20;99.90;;;;;;5000687;28;20044;-42
2023/02/07 01:03:40;;;;;;;20.45;10.55;;;3.20;99.90;;;;;;5003070;28;20108;-44
2023/02/07 01:06:07;;;;;;;19.00;10.40;;;3.20;99.90;;;;;;5004211;28;20037;-43
2023/02/07 01:08:33;;;;;;;22.55;10.65;;;3.10;99.90;;;;;;5003439;28;20033;-42
2023/02/07 01:11:05;;;;;;;18.75;9.95;;;3.10;99.90;;;;;;5004427;28;20030;-42
2023/02/07 01:13:31;;;;;;;20.20;10.52;;;3.10;99.90;;;;;;5004464;28;20036;-43
2023/02/07 01:15:56;;;;;;;19.90;9.75;;;3.00;99.90;;;;;;5003834;28;20034;-42
2023/02/07 01:18:22;;;;;;;17.85;9.20;;;3.00;99.90;;;;;;5004638;28;20127;-43
2023/02/07 01:20:47;;;;;;;17.50;9.52;;;3.00;99.90;;;;;;5003834;28;20061;-43
2023/02/07 01:23:14;;;;;;;16.80;9.88;;;3.00;99.90;;;;;;5003228;28;20154;-43
2023/02/07 01:25:39;;;;;;;22.60;10.00;;;2.90;99.90;;;;;;5003842;28;20433;-42
2023/02/07 01:28:05;;;;;;;15.25;8.65;;;2.90;99.90;;;;;;5003890;28;20026;-43
2023/02/07 01:30:31;;;;;;;16.10;9.55;;;2.90;99.90;;;;;;5003852;28;20026;-42
2023/02/07 01:32:57;;;;;;;14.57;8.38;;;2.80;99.90;;;;;;5003627;28;20033;-43
2023/02/07 01:35:23;;;;;;;14.80;9.23;;;2.80;99.90;;;;;;5004141;28;20042;-43
2023/02/07 01:37:51;;;;;;;16.40;9.10;;;2.80;99.90;;;;;;5003122;28;20787;-42
2023/02/07 01:40:17;;;;;;;16.17;9.05;;;2.80;99.90;;;;;;5004439;28;20048;-43
2023/02/07 01:42:43;;;;;;;19.10;10.77;;;2.80;99.90;;;;;;5003336;28;20561;-43
2023/02/07 01:45:34;;;;;;;17.55;9.43;;;2.70;99.90;;;;;;5002641;28;20025;-43
2023/02/07 01:48:08;;;;;;;18.73;9.43;;;2.70;99.90;;;;;;5003874;28;20033;-44
2023/02/07 01:50:35;;;;;;;22.20;10.27;;;2.70;99.90;;;;;;5003444;28;20040;-44
2023/02/07 01:53:03;;;;;;;23.55;12.10;;;2.70;99.90;;;;;;5003826;28;20026;-43
2023/02/07 01:55:33;;;;;;;26.88;13.45;;;2.60;99.90;;;;;;5003008;28;20022;-43
2023/02/07 01:58:01;;;;;;;20.83;12.27;;;2.60;99.90;;;;;;5002586;28;20042;-43
2023/02/07 02:00:27;;;;;;;22.73;12.20;;;2.60;99.90;;;;;;5002883;28;20021;-43
2023/02/07 02:02:53;;;;;;;21.60;11.18;;;2.60;99.90;;;;;;5002754;28;20648;-42
2023/02/07 02:05:20;;;;;;;20.83;11.05;;;2.50;99.90;;;;;;5002300;28;20036;-43
2023/02/07 02:07:45;;;;;;;22.33;11.20;;;2.50;99.90;;;;;;5003255;28;20029;-44
2023/02/07 02:10:20;;;;;;;24.80;11.60;;;2.50;99.90;;;;;;5003837;28;20018;-43
2023/02/07 02:13:17;;;;;;;25.73;11.65;;;2.50;99.90;;;;;;4982878;28;20034;-44
2023/02/07 02:16:10;;;;;;;23.25;12.70;;;2.50;99.90;;;;;;5000786;28;20030;-43
2023/02/07 02:18:42;;;;;;;22.55;12.20;;;2.40;99.90;;;;;;5003959;28;20042;-44
2023/02/07 02:21:55;;;;;;;19.77;11.00;;;2.40;99.90;;;;;;5002169;28;20026;-43
2023/02/07 02:24:23;;;;;;;24.02;11.95;;;2.40;99.90;;;;;;5003307;28;20024;-43
2023/02/07 02:26:59;;;;;;;21.55;11.80;;;2.30;99.90;;;;;;5002117;28;20405;-43
2023/02/07 02:29:40;;;;;;;24.20;12.52;;;2.30;99.90;;;;;;5003841;28;20022;-43
2023/02/07 02:32:05;;;;;;;19.98;11.05;;;2.30;99.90;;;;;;4994835;28;20469;-43
2023/02/07 02:34:53;;;;;;;20.73;10.23;;;2.30;99.90;;;;;;4990258;28;20053;-43
2023/02/07 02:37:28;;;;;;;19.15;11.02;;;2.30;99.90;;;;;;4992952;28;20083;-44
2023/02/07 02:40:28;;;;;;;17.52;10.38;;;2.30;99.90;;;;;;5002740;28;20547;-44
2023/02/07 02:43:17;;;;;;;18.67;10.75;;;2.20;99.90;;;;;;4996277;28;20041;-43
2023/02/07 02:45:46;;;;;;;18.17;11.00;;;2.20;99.90;;;;;;5003151;28;20030;-43
2023/02/07 02:48:12;;;;;;;22.20;11.45;;;2.10;99.90;;;;;;5002047;28;20032;-44
2023/02/07 02:50:45;;;;;;;18.50;10.95;;;2.10;99.90;;;;;;5002837;28;20022;-43
2023/02/07 02:53:12;;;;;;;20.15;11.13;;;2.10;99.90;;;;;;5003031;28;20392;-44
2023/02/07 02:56:00;;;;;;;19.55;12.23;;;2.00;99.90;;;;;;5001874;28;20026;-42
2023/02/07 02:58:43;;;;;;;23.85;12.57;;;2.10;99.90;;;;;;5002472;28;20049;-43
2023/02/07 03:01:14;;;;;;;25.05;12.85;;;2.00;99.90;;;;;;5001992;28;20374;-43
2023/02/07 03:04:14;;;;;;;28.25;13.88;;;2.00;99.90;;;;;;5003188;28;20065;-43
2023/02/07 03:06:47;;;;;;;23.55;12.85;;;2.00;99.90;;;;;;5002664;28;20108;-43
2023/02/07 03:09:24;;;;;;;23.08;12.95;;;1.90;99.90;;;;;;5002311;28;20092;-43
2023/02/07 03:11:59;;;;;;;21.02;12.77;;;1.90;99.90;;;;;;5002324;28;20097;-42
2023/02/07 03:14:35;;;;;;;23.77;13.32;;;1.90;99.90;;;;;;5002776;28;20032;-43
2023/02/07 03:17:15;;;;;;;24.38;13.32;;;1.90;99.90;;;;;;5000458;28;20502;-43
2023/02/07 03:20:06;;;;;;;21.52;13.52;;;1.80;99.90;;;;;;5001922;28;20030;-43
2023/02/07 03:22:33;;;;;;;20.67;12.27;;;1.80;99.90;;;;;;5001309;28;20030;-42
2023/02/07 03:25:00;;;;;;;23.58;13.82;;;1.80;99.90;;;;;;5001309;28;20036;-43
2023/02/07 03:27:29;;;;;;;25.15;14.20;;;1.70;99.90;;;;;;5001683;28;20030;-43
2023/02/07 03:29:58;;;;;;;23.60;13.98;;;1.80;99.90;;;;;;5001487;28;20042;-44
2023/02/07 03:32:29;;;;;;;27.08;15.32;;;1.70;99.90;;;;;;5002188;28;20030;-43
2023/02/07 03:35:08;;;;;;;25.17;14.30;;;1.70;99.90;;;;;;5001346;28;20468;-43
2023/02/07 03:37:33;;;;;;;27.40;16.38;;;1.70;99.90;;;;;;5000759;28;20038;-44
2023/02/07 03:39:59;;;;;;;29.08;14.43;;;1.60;99.90;;;;;;5001747;28;20026;-43
2023/02/07 03:42:33;;;;;;;25.38;14.60;;;1.60;99.90;;;;;;5001515;28;20389;-44
2023/02/07 03:45:00;;;;;;;23.52;13.63;;;1.60;99.90;;;;;;5001036;28;20095;-43
2023/02/07 03:47:27;;;;;;;22.58;13.75;;;1.60;99.90;;;;;;5001820;28;20762;-43
2023/02/07 03:49:53;;;;;;;24.25;14.85;;;1.60;99.90;;;;;;5001602;28;20133;-44
2023/02/07 03:52:18;;;;;;;24.60;13.93;;;1.50;99.90;;;;;;5001493;28;20042;-48
2023/02/07 03:54:44;;;;;;;25.25;14.60;;;1.50;99.90;;;;;;5001422;28;20746;-44
2023/02/07 03:57:22;;;;;;;24.70;13.32;;;1.50;99.90;;;;;;5000525;28;20782;-43
2023/02/07 03:59:47;;;;;;;29.20;16.15;;;1.50;99.90;;;;;;5001095;28;20443;-43
2023/02/07 04:02:17;;;;;;;28.08;15.30;;;1.50;99.90;;;;;;5000768;28;20034;-44
2023/02/07 04:04:42;;;;;;;22.80;14.32;;;1.50;99.90;;;;;;4997524;28;20037;-44
2023/02/07 04:07:09;;;;;;;22.42;13.77;;;1.40;99.90;;;;;;5001795;28;20030;-43
2023/02/07 04:09:35;;;;;;;23.65;14.00;;;1.40;99.90;;;;;;5000979;28;20549;-44
2023/02/07 04:12:00;;;;;;;24.10;13.35;;;1.40;99.90;;;;;;5000800;28;20111;-43
2023/02/07 04:14:26;;;;;;;24.33;14.10;;;1.40;99.90;;;;;;5000530;28;20108;-43
2023/02/07 04:16:54;;;;;;;25.65;14.95;;;1.40;99.90;;;;;;4981258;28;20054;-43
2023/02/07 04:19:20;;;;;;;24.85;13.93;;;1.30;99.90;;;;;;4994979;28;20576;-44
2023/02/07 04:21:46;;;;;;;27.48;14.57;;;1.30;99.90;;;;;;5001328;28;20084;-43
2023/02/07 04:24:12;;;;;;;26.63;15.10;;;1.30;99.90;;;;;;5001731;28;20088;-43
2023/02/07 04:26:38;;;;;;;26.35;14.55;;;1.30;99.90;;;;;;5000319;28;20030;-44
2023/02/07 04:29:03;;;;;;;30.58;16.73;;;1.30;99.90;;;;;;5000794;28;20741;-43
2023/02/07 04:31:29;;;;;;;26.75;15.48;;;1.20;99.90;;;;;;5001112;28;20058;-42
2023/02/07 04:33:54;;;;;;;25.25;14.38;;;1.20;99.90;;;;;;4999481;28;20078;-43
2023/02/07 04:36:21;;;;;;;24.40;14.82;;;1.20;99.90;;;;;;5000914;28;20022;-43
2023/02/07 04:38:47;;;;;;;29.30;15.68;;;1.20;99.90;;;;;;5003909;28;20478;-43
2023/02/07 04:41:12;;;;;;;25.38;14.25;;;1.10;99.90;;;;;;5004325;28;20029;-44
2023/02/07 04:43:38;;;;;;;22.25;13.10;;;1.10;99.90;;;;;;5005342;28;20895;-43
2023/02/07 04:46:08;;;;;;;32.00;16.25;;;1.10;99.90;;;;;;5004494;28;20890;-43
2023/02/07 04:48:36;;;;;;;27.13;14.82;;;1.10;99.90;;;;;;5004061;28;20049;-44
2023/02/07 04:51:02;;;;;;;23.52;14.93;;;1.00;99.90;;;;;;5004504;28;20030;-44
2023/02/07 04:53:27;;;;;;;28.88;15.52;;;1.00;99.90;;;;;;5004256;28;20025;-44
2023/02/07 04:55:53;;;;;;;25.55;16.15;;;1.00;99.90;;;;;;5004511;28;20394;-42
2023/02/07 04:58:21;;;;;;;28.30;15.85;;;1.00;99.90;;;;;;5005514;28;20634;-43
2023/02/07 05:00:49;;;;;;;27.05;15.55;;;0.90;99.90;;;;;;5003983;28;20018;-43
2023/02/07 05:03:15;;;;;;;28.23;15.82;;;0.90;99.90;;;;;;5004361;28;20603;-43
2023/02/07 05:05:42;;;;;;;33.17;16.13;;;0.90;99.90;;;;;;5004634;28;20128;-43
2023/02/07 05:08:08;;;;;;;28.67;15.88;;;0.90;99.90;;;;;;5003869;28;20030;-43
2023/02/07 05:10:34;;;;;;;32.28;17.55;;;0.90;99.90;;;;;;5004082;28;20381;-44
2023/02/07 05:13:03;;;;;;;32.58;17.85;;;0.90;99.90;;;;;;5004183;28;20034;-43
2023/02/07 05:15:29;;;;;;;26.88;15.18;;;0.80;99.90;;;;;;5003735;28;20029;-44
2023/02/07 05:17:55;;;;;;;26.83;15.32;;;0.80;99.90;;;;;;5004157;28;20478;-44
2023/02/07 05:20:22;;;;;;;32.22;15.90;;;0.80;99.90;;;;;;5004361;28;20476;-44
2023/02/07 05:22:47;;;;;;;29.17;15.50;;;0.80;99.90;;;;;;5003473;28;20136;-44
2023/02/07 05:25:13;;;;;;;27.42;15.43;;;0.80;99.90;;;;;;5003866;28;20028;-43
2023/02/07 05:27:39;;;;;;;26.30;14.73;;;0.80;99.90;;;;;;5003542;28;20026;-43
2023/02/07 05:30:05;;;;;;;24.27;13.82;;;0.70;99.90;;;;;;5003710;28;20022;-43
2023/02/07 05:35:15;;;;;;;27.80;14.95;;;0.70;99.90;;;;;;5003692;28;20061;-42
2023/02/07 05:37:41;;;;;;;24.15;14.50;;;0.70;99.90;;;;;;5002725;28;20121;-43
2023/02/07 05:40:07;;;;;;;28.70;15.30;;;0.70;99.90;;;;;;5003396;28;20039;-43
2023/02/07 05:42:33;;;;;;;24.55;15.02;;;0.70;99.90;;;;;;5003394;28;20053;-43
2023/02/07 05:44:58;;;;;;;27.10;15.00;;;0.70;99.90;;;;;;5003095;28;20121;-43
2023/02/07 05:47:27;;;;;;;26.20;14.23;;;0.70;99.90;;;;;;5003775;28;20064;-44
2023/02/07 05:49:52;;;;;;;29.20;15.95;;;0.70;99.90;;;;;;5002142;28;20036;-42
2023/02/07 05:52:18;;;;;;;25.13;15.25;;;0.60;99.90;;;;;;5003936;28;20026;-42
2023/02/07 05:54:44;;;;;;;25.73;14.88;;;0.60;99.90;;;;;;5003397;28;20033;-43
2023/02/07 05:57:09;;;;;;;27.45;15.20;;;0.60;99.90;;;;;;5002501;28;20113;-44
2023/02/07 05:59:35;;;;;;;24.17;15.30;;;0.60;99.90;;;;;;5003215;28;20080;-43
2023/02/07 06:02:00;;;;;;;27.30;15.55;;;0.60;99.90;;;;;;5003251;28;20041;-43
2023/02/07 06:04:26;;;;;;;29.23;15.85;;;0.60;99.90;;;;;;5002641;28;20034;-43
2023/02/07 06:06:52;;;;;;;30.80;16.25;;;0.60;99.90;;;;;;5002602;28;20033;-44
2023/02/07 06:09:17;;;;;;;28.77;15.88;;;0.60;99.90;;;;;;5003546;28;20018;-43
2023/02/07 06:11:43;;;;;;;23.00;14.40;;;0.50;99.90;;;;;;5003098;28;20561;-43
2023/02/07 06:14:09;;;;;;;26.75;15.32;;;0.60;99.90;;;;;;5003389;28;20026;-43
2023/02/07 06:16:34;;;;;;;28.10;16.23;;;0.50;99.90;;;;;;5002431;28;20057;-43
2023/02/07 06:19:00;;;;;;;26.75;15.60;;;0.50;99.90;;;;;;5001135;28;20034;-43
2023/02/07 06:21:28;;;;;;;25.83;15.25;;;0.50;99.90;;;;;;5001723;28;20049;-44
2023/02/07 06:23:54;;;;;;;25.88;16.38;;;0.50;99.90;;;;;;5002639;28;20068;-43
2023/02/07 06:26:20;;;;;;;24.83;15.60;;;0.50;99.90;;;;;;5002786;28;20026;-44
2023/02/07 06:28:45;;;;;;;27.10;15.00;;;0.40;99.90;;;;;;5002041;28;20839;-44
2023/02/07 06:31:11;;;;;;;23.33;14.88;;;0.40;99.90;;;;;;5002441;28;20036;-43
2023/02/07 06:33:36;;;;;;;26.90;16.08;;;0.40;99.90;;;;;;5001586;28;20030;-43
2023/02/07 06:36:02;;;;;;;24.70;15.63;;;0.40;99.90;;;;;;5001830;28;20048;-44
2023/02/07 06:38:28;;;;;;;28.08;17.05;;;0.40;99.90;;;;;;5001799;28;20037;-44
2023/02/07 06:40:53;;;;;;;26.85;16.27;;;0.40;99.90;;;;;;5001292;28;20030;-44
2023/02/07 06:43:19;;;;;;;27.13;17.30;;;0.40;99.90;;;;;;5002308;28;20731;-44
2023/02/07 06:45:44;;;;;;;26.17;16.65;;;0.40;99.90;;;;;;5001997;28;20462;-44
2023/02/07 06:48:10;;;;;;;23.50;14.50;;;0.40;99.90;;;;;;5001104;28;20803;-43
2023/02/07 06:50:36;;;;;;;26.02;16.60;;;0.30;99.90;;;;;;5001956;28;20108;-44
2023/02/07 06:53:02;;;;;;;28.50;17.25;;;0.40;99.90;;;;;;5000780;28;20030;-45
2023/02/07 06:55:28;;;;;;;25.88;15.95;;;0.30;99.90;;;;;;5000872;28;20087;-45
2023/02/07 06:57:57;;;;;;;31.15;16.20;;;0.30;99.90;;;;;;4999518;28;20045;-42
2023/02/07 07:00:23;;;;;;;26.35;15.05;;;0.30;99.90;;;;;;4999910;28;20250;-42
2023/02/07 07:02:49;;;;;;;25.48;15.50;;;0.30;99.90;;;;;;5001204;28;20034;-43
2023/02/07 07:05:15;;;;;;;31.60;16.55;;;0.30;99.90;;;;;;5001305;28;20117;-44
2023/02/07 07:07:41;;;;;;;29.02;17.00;;;0.30;99.90;;;;;;5000535;28;20026;-44
2023/02/07 07:10:07;;;;;;;31.42;18.17;;;0.30;99.90;;;;;;5001055;28;20706;-44
2023/02/07 07:12:32;;;;;;;30.80;17.30;;;0.30;99.90;;;;;;5001043;28;20034;-43
2023/02/07 07:14:58;;;;;;;29.00;16.52;;;0.30;99.90;;;;;;4999932;28;20026;-44
2023/02/07 07:17:24;;;;;;;28.85;17.27;;;0.20;99.90;;;;;;5001051;28;20041;-43
2023/02/07 07:19:49;;;;;;;31.17;17.75;;;0.20;99.90;;;;;;5000566;28;20030;-43
2023/02/07 07:22:15;;;;;;;33.03;17.40;;;0.20;99.90;;;;;;5001415;28;20034;-45
2023/02/07 07:24:40;;;;;;;36.35;18.98;;;0.20;99.90;;;;;;5001792;28;20026;-44
2023/02/07 07:27:06;;;;;;;31.98;18.60;;;0.20;99.90;;;;;;5001651;28;20480;-43
2023/02/07 07:29:32;;;;;;;32.38;18.45;;;0.20;99.90;;;;;;5000466;28;20612;-44
2023/02/07 07:31:57;;;;;;;34.33;18.77;;;0.20;99.90;;;;;;5001002;28;20104;-43
2023/02/07 07:34:23;;;;;;;34.78;19.33;;;0.20;99.90;;;;;;4995664;28;20081;-44
2023/02/07 07:36:48;;;;;;;34.88;19.88;;;0.20;99.90;;;;;;4999313;28;20820;-43
2023/02/07 07:39:15;;;;;;;35.90;19.05;;;0.20;99.90;;;;;;5000984;28;20068;-44
2023/02/07 07:41:41;;;;;;;37.47;19.00;;;0.30;99.90;;;;;;5002136;28;20036;-44
2023/02/07 07:44:07;;;;;;;37.08;19.45;;;0.30;99.90;;;;;;5000079;28;20810;-43
2023/02/07 07:46:33;;;;;;;33.83;18.42;;;0.20;99.90;;;;;;5001653;28;20136;-43
2023/02/07 07:48:58;;;;;;;30.52;16.80;;;0.20;99.90;;;;;;5001373;28;20168;-44
2023/02/07 07:51:24;;;;;;;32.20;17.17;;;0.20;99.90;;;;;;5000353;28;20061;-44
2023/02/07 07:53:49;;;;;;;31.08;16.98;;;0.20;99.90;;;;;;5000690;28;20030;-44
2023/02/07 07:56:15;;;;;;;30.65;16.27;;;0.20;99.90;;;;;;5000024;28;20504;-44
2023/02/07 07:58:40;;;;;;;29.63;15.88;;;0.20;99.90;;;;;;5000784;28;20469;-44
2023/02/07 08:01:06;;;;;;;29.88;16.40;;;0.30;99.90;;;;;;5000343;28;20033;-44
2023/02/07 08:03:32;;;;;;;26.98;15.60;;;0.30;99.90;;;;;;5000507;28;20034;-45
2023/02/07 08:05:57;;;;;;;32.17;16.25;;;0.30;99.90;;;;;;5000666;28;20117;-43
2023/02/07 08:08:23;;;;;;;27.10;14.65;;;0.30;99.90;;;;;;5000311;28;20041;-44
2023/02/07 08:10:48;;;;;;;26.60;14.68;;;0.30;99.90;;;;;;5000230;28;20022;-43
2023/02/07 08:13:15;;;;;;;30.58;16.90;;;0.30;99.90;;;;;;4999690;28;20045;-44
2023/02/07 08:15:44;;;;;;;25.67;14.95;;;0.30;99.90;;;;;;5000643;28;20029;-44
2023/02/07 08:18:10;;;;;;;30.25;15.63;;;0.30;99.90;;;;;;4996598;28;20539;-44
2023/02/07 08:20:35;;;;;;;26.10;16.15;;;0.40;99.90;;;;;;5000749;28;20036;-45
2023/02/07 08:23:01;;;;;;;28.40;17.63;;;0.40;99.90;;;;;;5000940;28;20920;-44
2023/02/07 08:25:27;;;;;;;26.02;15.35;;;0.40;99.90;;;;;;5000825;28;20580;-45
2023/02/07 08:27:53;;;;;;;30.02;16.20;;;0.40;99.90;;;;;;5000708;28;20478;-43
2023/02/07 08:30:19;;;;;;;27.02;15.98;;;0.40;99.90;;;;;;4981188;28;20027;-44
2023/02/07 08:32:45;;;;;;;26.33;15.10;;;0.40;99.90;;;;;;4994495;28;20026;-43
2023/02/07 08:35:11;;;;;;;27.23;15.15;;;0.40;99.90;;;;;;5000178;28;20376;-44
2023/02/07 08:37:36;;;;;;;23.63;14.75;;;0.40;99.90;;;;;;5000084;28;20117;-44
2023/02/07 08:40:04;;;;;;;25.35;15.60;;;0.50;99.90;;;;;;5000225;28;20635;-44
2023/02/07 08:42:29;;;;;;;27.40;15.23;;;0.50;99.90;;;;;;5000612;28;20010;-44
2023/02/07 08:44:55;;;;;;;29.80;16.42;;;0.50;99.90;;;;;;4999968;28;20029;-43
2023/02/07 08:47:21;;;;;;;34.70;18.05;;;0.50;99.90;;;;;;4999782;28;20101;-44
2023/02/07 08:49:46;;;;;;;32.38;17.42;;;0.50;99.90;;;;;;4999429;28;20030;-44
2023/02/07 08:52:12;;;;;;;31.10;17.20;;;0.50;99.90;;;;;;4999771;28;20387;-44
2023/02/07 08:54:38;;;;;;;28.15;16.33;;;0.50;99.90;;;;;;4999386;28;20116;-46
2023/02/07 08:57:04;;;;;;;27.02;16.30;;;0.50;99.90;;;;;;4999456;28;20034;-44
2023/02/07 08:59:29;;;;;;;27.42;15.48;;;0.60;99.90;;;;;;4998083;28;20065;-44
2023/02/07 09:01:55;;;;;;;24.27;15.63;;;0.60;99.90;;;;;;4995254;28;20027;-45
2023/02/07 09:04:21;;;;;;;24.83;15.35;;;0.60;99.90;;;;;;4998939;28;20034;-44
2023/02/07 09:06:46;;;;;;;30.13;16.20;;;0.60;99.90;;;;;;4998843;28;20036;-45
2023/02/07 09:09:12;;;;;;;27.58;16.20;;;0.70;99.90;;;;;;4998122;28;20168;-45
2023/02/07 09:11:38;;;;;;;25.05;15.00;;;0.70;99.90;;;;;;4999796;28;20041;-44
2023/02/07 09:14:03;;;;;;;29.77;17.10;;;0.70;99.90;;;;;;4999054;28;20026;-44
2023/02/07 09:16:29;;;;;;;26.70;16.10;;;0.70;99.90;;;;;;4999434;28;20029;-44
2023/02/07 09:18:55;;;;;;;27.55;15.85;;;0.70;99.90;;;;;;4999650;28;20065;-44
2023/02/07 09:21:21;;;;;;;24.77;15.43;;;0.70;99.90;;;;;;4997833;28;20057;-44
2023/02/07 09:23:47;;;;;;;25.98;16.30;;;0.70;99.90;;;;;;5001476;28;20474;-44
2023/02/07 09:26:21;;;;;;;28.40;16.58;;;0.70;99.90;;;;;;5003624;28;20030;-44
2023/02/07 09:28:47;;;;;;;29.55;17.60;;;0.70;99.90;;;;;;5002636;28;20028;-43
2023/02/07 09:31:14;;;;;;;30.52;18.67;;;0.70;99.90;;;;;;5004003;28;20648;-43
2023/02/07 09:33:41;;;;;;;28.27;16.95;;;0.70;99.90;;;;;;5002484;28;21234;-44
2023/02/07 09:36:21;;;;;;;32.88;19.10;;;0.70;99.90;;;;;;5002364;28;20122;-43
2023/02/07 09:38:47;;;;;;;29.60;17.15;;;0.70;99.90;;;;;;5003260;28;20143;-44
2023/02/07 09:41:48;;;;;;;31.00;18.45;;;0.70;99.90;;;;;;5002911;28;20087;-45
2023/02/07 09:44:45;;;;;;;32.38;18.58;;;0.70;99.90;;;;;;5001191;28;20080;-43
2023/02/07 09:47:19;;;;;;;33.20;19.02;;;0.70;99.90;;;;;;5002865;28;20116;-45
2023/02/07 09:50:02;;;;;;;33.33;17.75;;;0.70;99.90;;;;;;5001760;28;20582;-43
2023/02/07 09:52:40;;;;;;;27.98;17.48;;;0.70;99.90;;;;;;5002714;28;20061;-44
2023/02/07 09:55:16;;;;;;;28.27;16.75;;;0.70;99.90;;;;;;5003051;28;20121;-43
2023/02/07 09:57:46;;;;;;;28.02;16.33;;;0.70;99.90;;;;;;5001487;28;20049;-44
2023/02/07 10:00:41;;;;;;;28.05;16.48;;;0.70;99.90;;;;;;5002993;28;20444;-45
2023/02/07 10:03:24;;;;;;;27.50;15.57;;;0.70;99.90;;;;;;5002661;28;20026;-44
2023/02/07 10:06:06;;;;;;;23.00;15.10;;;0.80;99.90;;;;;;5002620;28;20026;-44
2023/02/07 10:08:33;;;;;;;27.88;15.90;;;0.80;99.90;;;;;;5001940;28;20067;-44
2023/02/07 10:11:25;;;;;;;25.75;15.43;;;0.90;99.90;;;;;;5001692;28;20022;-44
2023/02/07 10:14:06;;;;;;;29.15;17.23;;;0.90;99.90;;;;;;5002980;28;20045;-44
2023/02/07 10:16:49;;;;;;;28.20;16.13;;;0.90;99.90;;;;;;5001998;28;20080;-44
2023/02/07 10:19:46;;;;;;;27.33;15.43;;;0.90;99.90;;;;;;4995567;28;20204;-44
2023/02/07 10:22:37;;;;;;;26.17;16.08;;;1.00;99.90;;;;;;4990561;28;20407;-43
2023/02/07 10:25:05;;;;;;;26.15;14.93;;;1.10;99.90;;;;;;5001760;28;20057;-44
2023/02/07 10:27:41;;;;;;;23.73;13.68;;;1.10;99.90;;;;;;4990758;28;20057;-44
2023/02/07 10:30:12;;;;;;;24.85;14.35;;;1.10;99.90;;;;;;5002433;28;20033;-44
2023/02/07 10:32:38;;;;;;;24.52;14.05;;;1.20;99.90;;;;;;5001585;28;20076;-43
2023/02/07 10:35:23;;;;;;;22.75;13.98;;;1.30;99.90;;;;;;5001233;28;20255;-43
2023/02/07 10:37:52;;;;;;;24.25;13.52;;;1.30;99.90;;;;;;4998014;28;20036;-44
2023/02/07 10:40:26;;;;;;;23.90;13.57;;;1.40;99.90;;;;;;5001620;28;20045;-44
2023/02/07 10:43:04;;;;;;;25.70;13.88;;;1.50;99.90;;;;;;4998953;28;20026;-44
2023/02/07 10:45:30;;;;;;;25.83;13.32;;;1.50;99.90;;;;;;4999919;28;20041;-44
2023/02/07 10:47:57;;;;;;;19.77;12.50;;;1.60;99.90;;;;;;5001712;28;20034;-44
2023/02/07 10:50:23;;;;;;;21.77;13.02;;;1.60;99.90;;;;;;5002142;28;20708;-44
2023/02/07 10:52:54;;;;;;;18.33;11.45;;;1.70;99.90;;;;;;5000961;28;20025;-43
2023/02/07 10:55:38;;;;;;;20.90;11.77;;;1.70;99.90;;;;;;5002173;28;20030;-43
2023/02/07 10:58:04;;;;;;;23.40;12.80;;;1.80;99.90;;;;;;5001298;28;20038;-44
2023/02/07 11:00:33;;;;;;;18.60;11.52;;;1.80;99.90;;;;;;5001193;28;20037;-43
2023/02/07 11:03:13;;;;;;;20.52;11.50;;;1.80;99.90;;;;;;5002312;28;20068;-43
2023/02/07 11:06:03;;;;;;;17.45;10.73;;;1.90;99.90;;;;;;5000248;28;20221;-43
2023/02/07 11:08:31;;;;;;;19.50;11.32;;;2.00;99.90;;;;;;5000668;28;20025;-43
2023/02/07 11:10:59;;;;;;;18.23;10.30;;;2.10;99.90;;;;;;5001666;28;20026;-43
2023/02/07 11:13:29;;;;;;;16.08;9.65;;;2.10;99.90;;;;;;5001151;28;20049;-43
2023/02/07 11:16:06;;;;;;;17.83;10.98;;;2.20;99.90;;;;;;5001736;28;20029;-42
2023/02/07 11:18:44;;;;;;;18.20;10.63;;;2.20;99.90;;;;;;5001452;28;20076;-43
2023/02/07 11:21:27;;;;;;;23.30;11.52;;;2.30;99.90;;;;;;5000375;28;20022;-44
2023/02/07 11:23:56;;;;;;;18.63;10.70;;;2.30;99.90;;;;;;5001009;28;20034;-44
2023/02/07 11:26:22;;;;;;;16.27;10.10;;;2.40;99.90;;;;;;5001857;28;20105;-43
2023/02/07 11:28:53;;;;;;;14.90;9.23;;;2.40;99.90;;;;;;4999957;28;20657;-44
2023/02/07 11:31:27;;;;;;;13.15;9.57;;;2.50;99.90;;;;;;4998243;28;20017;-42
2023/02/07 11:33:53;;;;;;;13.30;9.45;;;2.50;99.90;;;;;;5000434;28;20052;-43
2023/02/07 11:36:22;;;;;;;13.25;8.75;;;2.60;99.90;;;;;;5001229;28;20058;-43
2023/02/07 11:38:58;;;;;;;11.52;8.38;;;2.60;99.90;;;;;;5001288;28;20418;-43
2023/02/07 11:41:30;;;;;;;12.52;8.23;;;2.70;99.90;;;;;;5000879;28;20038;-43
2023/02/07 11:44:02;;;;;;;9.88;6.88;;;2.80;99.90;;;;;;5001200;28;20037;-44
2023/02/07 11:46:35;;;;;;;10.50;6.33;;;2.80;99.90;;;;;;5000989;28;20129;-44
2023/02/07 11:49:02;;;;;;;11.45;6.78;;;2.90;99.90;;;;;;5000466;28;20042;-43
2023/02/07 11:51:31;;;;;;;8.07;5.85;;;3.00;99.90;;;;;;5001065;28;20091;-44
2023/02/07 11:54:01;;;;;;;7.10;5.15;;;3.00;99.90;;;;;;5001254;28;20021;-43
2023/02/07 11:56:40;;;;;;;8.25;5.78;;;3.10;99.90;;;;;;5000707;28;20037;-43
2023/02/07 11:59:14;;;;;;;8.35;5.80;;;3.10;99.90;;;;;;4981432;28;20050;-43
2023/02/07 12:01:43;;;;;;;8.85;5.38;;;3.10;99.90;;;;;;4997411;28;20084;-42
2023/02/07 12:04:14;;;;;;;7.90;5.82;;;3.10;99.90;;;;;;4980410;28;20026;-43
2023/02/07 12:07:03;;;;;;;9.00;5.75;;;3.20;99.90;;;;;;4996014;28;20029;-42
2023/02/07 12:09:39;;;;;;;8.10;5.47;;;3.20;99.90;;;;;;4980192;28;20061;-43
2023/02/07 12:12:14;;;;;;;7.82;5.82;;;3.30;99.90;;;;;;4996514;28;20026;-43
2023/02/07 12:15:05;;;;;;;7.55;5.75;;;3.30;99.90;;;;;;5000798;28;20397;-44
2023/02/07 12:17:57;;;;;;;7.40;5.63;;;3.30;99.90;;;;;;4999605;28;20084;-43
2023/02/07 12:20:27;;;;;;;7.00;5.35;;;3.30;99.90;;;;;;4999892;28;20065;-42
2023/02/07 12:23:05;;;;;;;6.78;4.95;;;3.30;99.90;;;;;;4999050;28;20025;-43
2023/02/07 12:25:46;;;;;;;6.82;4.93;;;3.40;99.90;;;;;;5000377;28;20144;-43
2023/02/07 12:28:37;;;;;;;6.55;4.82;;;3.40;99.90;;;;;;4996841;28;20037;-44
2023/02/07 12:31:19;;;;;;;6.85;5.00;;;3.50;99.90;;;;;;4999461;28;20068;-44
2023/02/07 12:34:00;;;;;;;5.97;4.28;;;3.50;99.90;;;;;;5000009;28;20113;-43
2023/02/07 12:36:36;;;;;;;5.35;4.47;;;3.50;99.90;;;;;;5000610;28;20033;-43
2023/02/07 12:39:12;;;;;;;6.97;5.18;;;3.50;99.90;;;;;;4989542;28;20045;-43
2023/02/07 12:42:03;;;;;;;8.95;5.47;;;3.50;99.90;;;;;;5000632;28;20029;-43
2023/02/07 12:44:41;;;;;;;7.65;5.00;;;3.50;99.90;;;;;;4992549;28;20391;-42
2023/02/07 12:47:18;;;;;;;8.07;5.55;;;3.60;99.90;;;;;;5000420;28;20036;-43
2023/02/07 12:49:57;;;;;;;6.90;5.65;;;3.60;99.90;;;;;;5000571;28;20514;-43
2023/02/07 12:52:42;;;;;;;8.32;5.28;;;3.60;99.90;;;;;;5000428;28;20113;-43
2023/02/07 12:55:19;;;;;;;8.35;5.75;;;3.70;99.90;;;;;;5000770;28;20072;-44
2023/02/07 12:58:05;;;;;;;6.80;5.32;;;3.80;99.90;;;;;;5000033;28;20045;-43